Time;durP1;ratioP1;P1;durP2;ratioP2;P2;SDS_P1;SDS_P2;PMS_P1;PMS_P2;Temp;Humidity;BMP_temperature;BMP_pressure;BME280_temperature;BME280_humidity;BME280_pressure;Samples;Min_cycle;Max_cycle;Signal;HPM_P1;HPM_P2
2023/09/29 00:00:17;;;;;;;20.27;5.80;;;;;;;;;;5032711;28;20415;-81
2023/09/29 00:02:45;;;;;;;23.40;4.87;;;;;;;;;;5034310;28;20409;-82
2023/09/29 00:05:14;;;;;;;20.15;5.20;;;;;;;;;;5016364;28;20419;-81
2023/09/29 00:07:42;;;;;;;21.92;5.35;;;;;;;;;;5030807;28;20418;-81
2023/09/29 00:10:10;;;;;;;18.10;4.97;;;;;;;;;;5030953;28;20414;-80
2023/09/29 00:12:37;;;;;;;23.17;5.65;;;;;;;;;;5033152;28;20437;-84
2023/09/29 00:15:04;;;;;;;18.60;5.00;;;;;;;;;;5048362;28;20517;-81
2023/09/29 00:17:31;;;;;;;18.67;5.00;;;;;;;;;;5043672;28;20427;-82
2023/09/29 00:19:58;;;;;;;19.63;4.72;;;;;;;;;;5032360;28;20924;-82
2023/09/29 00:22:24;;;;;;;18.52;4.57;;;;;;;;;;5033883;28;20413;-82
2023/09/29 00:24:54;;;;;;;17.70;4.70;;;;;;;;;;5046024;28;20403;-81
2023/09/29 00:27:20;;;;;;;19.40;5.90;;;;;;;;;;5033551;28;20406;-81
2023/09/29 00:29:47;;;;;;;20.70;5.38;;;;;;;;;;5033808;28;20407;-82
2023/09/29 00:32:14;;;;;;;21.40;4.67;;;;;;;;;;5034442;28;20506;-82
2023/09/29 00:34:41;;;;;;;19.42;5.00;;;;;;;;;;5031186;28;20482;-80
2023/09/29 00:37:09;;;;;;;21.38;4.70;;;;;;;;;;5033983;28;20473;-81
2023/09/29 00:39:36;;;;;;;22.10;5.07;;;;;;;;;;5044880;28;20441;-81
2023/09/29 00:42:06;;;;;;;20.70;4.80;;;;;;;;;;5041362;28;20447;-81
2023/09/29 00:44:33;;;;;;;19.15;4.50;;;;;;;;;;5032865;28;20749;-82
2023/09/29 00:47:00;;;;;;;18.52;4.43;;;;;;;;;;5034492;28;20430;-83
2023/09/29 00:49:29;;;;;;;20.85;4.82;;;;;;;;;;5045185;28;20404;-82
2023/09/29 00:51:59;;;;;;;20.00;4.30;;;;;;;;;;5049126;28;20468;-83
2023/09/29 00:54:27;;;;;;;18.50;4.07;;;;;;;;;;5047510;28;20424;-83
2023/09/29 00:56:55;;;;;;;17.70;4.53;;;;;;;;;;5043874;28;20422;-82
2023/09/29 00:59:24;;;;;;;18.67;4.55;;;;;;;;;;5046741;28;20908;-80
2023/09/29 01:01:52;;;;;;;21.05;4.80;;;;;;;;;;5033854;28;20419;-82
2023/09/29 01:04:18;;;;;;;18.20;4.43;;;;;;;;;;5033308;28;20486;-83
2023/09/29 01:06:45;;;;;;;22.20;5.00;;;;;;;;;;5029143;28;20408;-82
2023/09/29 01:09:12;;;;;;;18.92;4.30;;;;;;;;;;5032874;28;20429;-82
2023/09/29 01:11:42;;;;;;;19.15;4.32;;;;;;;;;;5032956;28;20426;-81
2023/09/29 01:14:11;;;;;;;16.88;4.30;;;;;;;;;;5039896;28;20447;-82
2023/09/29 01:16:40;;;;;;;19.30;4.40;;;;;;;;;;5036351;28;20421;-81
2023/09/29 01:19:11;;;;;;;17.45;3.80;;;;;;;;;;5029320;28;20427;-80
2023/09/29 01:21:38;;;;;;;17.27;3.80;;;;;;;;;;5037390;28;20425;-82
2023/09/29 01:24:07;;;;;;;18.63;4.20;;;;;;;;;;5032483;28;20407;-83
2023/09/29 01:26:34;;;;;;;19.77;4.50;;;;;;;;;;5034210;28;20446;-82
2023/09/29 01:29:00;;;;;;;18.30;4.20;;;;;;;;;;5029348;28;20403;-82
2023/09/29 01:31:27;;;;;;;16.80;3.50;;;;;;;;;;5018843;28;20516;-81
2023/09/29 01:33:54;;;;;;;20.07;4.23;;;;;;;;;;5032631;28;20407;-81
2023/09/29 01:36:21;;;;;;;17.47;4.47;;;;;;;;;;5045331;28;20769;-83
2023/09/29 01:38:47;;;;;;;17.58;3.80;;;;;;;;;;5032339;28;20415;-80
2023/09/29 01:41:16;;;;;;;20.90;4.70;;;;;;;;;;5032028;28;20427;-82
2023/09/29 01:43:43;;;;;;;20.03;4.37;;;;;;;;;;5029818;28;20508;-83
2023/09/29 01:46:11;;;;;;;16.85;3.80;;;;;;;;;;5030862;28;20407;-81
2023/09/29 01:48:38;;;;;;;17.65;3.70;;;;;;;;;;5032362;28;20984;-82
2023/09/29 01:51:04;;;;;;;17.05;3.63;;;;;;;;;;5032413;28;20494;-82
2023/09/29 01:53:31;;;;;;;19.00;3.72;;;;;;;;;;5032000;28;20410;-81
2023/09/29 01:55:58;;;;;;;18.20;4.40;;;;;;;;;;5032164;28;20946;-82
2023/09/29 01:58:27;;;;;;;18.77;3.90;;;;;;;;;;5031133;28;20514;-83
2023/09/29 02:00:54;;;;;;;18.88;3.60;;;;;;;;;;5013269;28;20483;-80
2023/09/29 02:03:21;;;;;;;17.60;3.83;;;;;;;;;;5011326;28;20419;-83
2023/09/29 02:05:48;;;;;;;19.65;4.03;;;;;;;;;;5031061;28;20439;-82
2023/09/29 02:08:14;;;;;;;18.15;3.75;;;;;;;;;;5046029;28;20415;-84
2023/09/29 02:10:41;;;;;;;17.23;3.65;;;;;;;;;;5033114;28;20417;-81
2023/09/29 02:13:08;;;;;;;19.30;3.78;;;;;;;;;;5031957;28;20407;-83
2023/09/29 02:15:36;;;;;;;18.50;4.53;;;;;;;;;;5032442;28;20476;-82
2023/09/29 02:18:09;;;;;;;17.20;4.15;;;;;;;;;;5041196;28;20887;-82
2023/09/29 02:20:38;;;;;;;17.55;3.78;;;;;;;;;;5014521;28;20734;-82
2023/09/29 02:23:07;;;;;;;17.70;4.38;;;;;;;;;;5030144;28;20461;-82
2023/09/29 02:25:33;;;;;;;16.67;3.70;;;;;;;;;;5030699;28;20415;-82
2023/09/29 02:28:00;;;;;;;18.20;4.75;;;;;;;;;;5040126;28;20435;-83
2023/09/29 02:30:27;;;;;;;17.40;3.80;;;;;;;;;;5042405;28;20420;-82
2023/09/29 02:32:56;;;;;;;17.73;4.00;;;;;;;;;;5038007;28;20415;-82
2023/09/29 02:35:23;;;;;;;19.87;4.00;;;;;;;;;;5030593;28;20786;-82
2023/09/29 02:37:52;;;;;;;18.17;3.30;;;;;;;;;;5039313;28;20771;-82
2023/09/29 02:40:22;;;;;;;17.27;3.80;;;;;;;;;;5036312;28;20422;-82
2023/09/29 02:42:49;;;;;;;17.40;3.60;;;;;;;;;;5030552;28;20498;-82
2023/09/29 02:45:16;;;;;;;18.27;4.05;;;;;;;;;;5029100;28;20557;-82
2023/09/29 02:47:42;;;;;;;17.67;3.43;;;;;;;;;;5029469;28;20407;-82
2023/09/29 02:50:11;;;;;;;18.00;3.60;;;;;;;;;;5030304;28;20811;-83
2023/09/29 02:52:39;;;;;;;16.60;3.50;;;;;;;;;;5030492;28;20414;-83
2023/09/29 02:55:06;;;;;;;17.20;3.60;;;;;;;;;;5036597;28;20423;-81
2023/09/29 02:57:33;;;;;;;17.50;3.40;;;;;;;;;;5031551;28;20438;-82
2023/09/29 03:00:00;;;;;;;18.27;3.80;;;;;;;;;;5045318;28;20410;-82
2023/09/29 03:02:26;;;;;;;18.08;3.60;;;;;;;;;;5044295;28;20486;-83
2023/09/29 03:04:53;;;;;;;19.35;3.38;;;;;;;;;;5037124;28;20421;-82
2023/09/29 03:07:21;;;;;;;17.70;4.03;;;;;;;;;;5026856;28;20416;-82
2023/09/29 03:09:48;;;;;;;16.15;3.38;;;;;;;;;;5044920;28;20413;-82
2023/09/29 03:12:16;;;;;;;18.70;3.88;;;;;;;;;;5028246;28;20409;-82
2023/09/29 03:14:43;;;;;;;17.90;3.42;;;;;;;;;;5029924;28;20414;-82
2023/09/29 03:17:10;;;;;;;18.23;3.42;;;;;;;;;;5034181;28;20411;-81
2023/09/29 03:19:36;;;;;;;16.08;3.30;;;;;;;;;;5035274;28;20418;-80
2023/09/29 03:22:03;;;;;;;16.67;3.45;;;;;;;;;;5023394;28;20410;-82
2023/09/29 03:24:32;;;;;;;16.27;3.35;;;;;;;;;;5033630;28;20411;-81
2023/09/29 03:26:59;;;;;;;20.20;3.90;;;;;;;;;;5034136;28;20415;-82
2023/09/29 03:29:25;;;;;;;20.20;4.00;;;;;;;;;;5034158;28;20414;-83
2023/09/29 03:31:54;;;;;;;17.73;3.95;;;;;;;;;;5034920;28;20407;-81
2023/09/29 03:34:21;;;;;;;21.67;3.63;;;;;;;;;;5050575;28;20419;-82
2023/09/29 03:36:50;;;;;;;17.42;3.70;;;;;;;;;;5033033;28;20521;-82
2023/09/29 03:39:18;;;;;;;18.63;3.80;;;;;;;;;;5047564;28;20502;-81
2023/09/29 03:41:46;;;;;;;17.50;4.10;;;;;;;;;;5035530;28;20442;-82
2023/09/29 03:44:13;;;;;;;17.25;3.63;;;;;;;;;;5039376;28;20438;-82
2023/09/29 03:46:39;;;;;;;16.67;3.60;;;;;;;;;;5047386;28;20402;-83
2023/09/29 03:49:06;;;;;;;17.77;3.85;;;;;;;;;;5046799;28;20426;-81
2023/09/29 03:51:33;;;;;;;17.60;3.50;;;;;;;;;;5035204;28;20442;-81
2023/09/29 03:54:00;;;;;;;17.77;3.40;;;;;;;;;;5034618;28;20476;-82
2023/09/29 03:56:27;;;;;;;17.10;3.80;;;;;;;;;;5050001;28;20511;-81
2023/09/29 03:58:55;;;;;;;16.45;3.60;;;;;;;;;;5038212;28;20499;-81
2023/09/29 04:01:22;;;;;;;17.50;3.80;;;;;;;;;;5034761;28;20411;-82
2023/09/29 04:03:49;;;;;;;18.25;4.20;;;;;;;;;;5043451;28;20437;-83
2023/09/29 04:06:16;;;;;;;17.60;3.50;;;;;;;;;;5036900;28;20419;-82
2023/09/29 04:08:43;;;;;;;17.20;3.70;;;;;;;;;;5044300;28;20419;-82
2023/09/29 04:11:10;;;;;;;16.88;3.50;;;;;;;;;;5033081;28;20399;-81
2023/09/29 04:13:37;;;;;;;18.50;3.70;;;;;;;;;;5033266;28;20776;-81
2023/09/29 04:16:06;;;;;;;18.73;4.10;;;;;;;;;;5033152;28;20423;-82
2023/09/29 04:18:32;;;;;;;15.90;3.20;;;;;;;;;;5034956;28;20407;-79
2023/09/29 04:21:00;;;;;;;18.90;4.00;;;;;;;;;;5039180;28;20430;-81
2023/09/29 04:23:27;;;;;;;18.23;4.55;;;;;;;;;;5030822;28;20411;-81
2023/09/29 04:25:53;;;;;;;22.00;4.57;;;;;;;;;;5042569;28;20421;-81
2023/09/29 04:28:20;;;;;;;17.23;3.70;;;;;;;;;;5031457;28;20907;-81
2023/09/29 04:30:47;;;;;;;18.35;3.80;;;;;;;;;;5034642;28;20403;-82
2023/09/29 04:33:15;;;;;;;17.80;3.60;;;;;;;;;;5034160;28;20851;-81
2023/09/29 04:35:42;;;;;;;16.85;3.60;;;;;;;;;;5049058;28;20499;-81
2023/09/29 04:38:10;;;;;;;19.48;3.65;;;;;;;;;;5034274;28;20403;-83
2023/09/29 04:40:37;;;;;;;16.70;3.28;;;;;;;;;;5032759;28;20775;-80
2023/09/29 04:43:05;;;;;;;17.67;3.45;;;;;;;;;;5038406;28;20429;-80
2023/09/29 04:45:33;;;;;;;16.27;3.13;;;;;;;;;;5034704;28;20465;-80
2023/09/29 04:48:01;;;;;;;19.40;3.90;;;;;;;;;;5039594;28;20505;-81
2023/09/29 04:50:29;;;;;;;20.80;4.10;;;;;;;;;;5036278;28;20415;-80
2023/09/29 04:52:56;;;;;;;17.08;4.03;;;;;;;;;;5033257;28;20415;-81
2023/09/29 04:55:23;;;;;;;16.90;3.40;;;;;;;;;;5032943;28;20537;-80
2023/09/29 04:57:52;;;;;;;16.58;3.10;;;;;;;;;;5033363;28;20429;-80
2023/09/29 05:00:19;;;;;;;19.17;4.10;;;;;;;;;;5016206;28;20446;-81
2023/09/29 05:02:46;;;;;;;18.88;3.50;;;;;;;;;;5046044;28;20421;-82
2023/09/29 05:05:13;;;;;;;18.47;3.50;;;;;;;;;;5031322;28;20930;-82
2023/09/29 05:07:43;;;;;;;18.20;3.83;;;;;;;;;;5033343;28;20430;-83
2023/09/29 05:10:11;;;;;;;18.65;3.90;;;;;;;;;;5028120;28;20418;-82
2023/09/29 05:12:37;;;;;;;18.00;3.55;;;;;;;;;;5031452;28;20415;-82
2023/09/29 05:15:05;;;;;;;17.23;3.47;;;;;;;;;;5033246;28;20411;-82
2023/09/29 05:17:31;;;;;;;17.00;3.50;;;;;;;;;;5032954;28;20418;-81
2023/09/29 05:20:14;;;;;;;17.05;3.60;;;;;;;;;;5039588;28;20414;-81
2023/09/29 05:22:42;;;;;;;17.50;3.53;;;;;;;;;;5033335;28;20407;-81
2023/09/29 05:25:08;;;;;;;17.55;3.83;;;;;;;;;;5030084;28;20768;-82
2023/09/29 05:27:35;;;;;;;16.92;3.60;;;;;;;;;;5032628;28;20974;-82
2023/09/29 05:30:02;;;;;;;17.02;3.10;;;;;;;;;;5033010;28;20418;-83
2023/09/29 05:32:29;;;;;;;18.17;3.22;;;;;;;;;;5046295;28;20409;-81
2023/09/29 05:34:58;;;;;;;17.65;3.30;;;;;;;;;;5031957;28;20407;-82
2023/09/29 05:37:24;;;;;;;16.23;3.33;;;;;;;;;;5032950;28;20445;-82
2023/09/29 05:39:52;;;;;;;18.40;3.70;;;;;;;;;;5032801;28;20414;-84
2023/09/29 05:42:21;;;;;;;17.23;3.55;;;;;;;;;;5029272;28;20452;-83
2023/09/29 05:44:59;;;;;;;17.50;3.00;;;;;;;;;;5034922;28;20415;-81
2023/09/29 05:47:26;;;;;;;16.00;3.00;;;;;;;;;;5019062;28;20520;-83
2023/09/29 05:49:53;;;;;;;19.27;3.60;;;;;;;;;;5032038;28;20429;-80
2023/09/29 05:52:39;;;;;;;16.38;3.00;;;;;;;;;;5037763;28;20406;-82
2023/09/29 05:55:08;;;;;;;20.42;3.65;;;;;;;;;;5031841;28;20426;-80
2023/09/29 05:57:36;;;;;;;16.50;3.35;;;;;;;;;;5031926;28;20418;-81
2023/09/29 06:00:04;;;;;;;17.02;3.30;;;;;;;;;;5012749;28;20409;-82
2023/09/29 06:02:31;;;;;;;17.70;3.20;;;;;;;;;;5023701;28;20420;-82
2023/09/29 06:04:59;;;;;;;16.40;2.90;;;;;;;;;;5034572;28;21119;-82
2023/09/29 06:07:26;;;;;;;18.50;3.67;;;;;;;;;;5031317;28;20407;-81
2023/09/29 06:09:52;;;;;;;17.40;3.30;;;;;;;;;;5032036;28;20886;-82
2023/09/29 06:12:20;;;;;;;20.27;3.50;;;;;;;;;;5026698;28;20516;-82
2023/09/29 06:14:47;;;;;;;19.85;3.20;;;;;;;;;;5034957;28;20409;-80
2023/09/29 06:17:13;;;;;;;17.77;3.10;;;;;;;;;;5030501;28;20438;-82
2023/09/29 06:19:41;;;;;;;17.90;3.10;;;;;;;;;;5031794;28;20501;-82
2023/09/29 06:22:07;;;;;;;16.90;3.30;;;;;;;;;;5027795;28;20465;-81
2023/09/29 06:24:34;;;;;;;20.30;3.58;;;;;;;;;;5030712;28;20903;-80
2023/09/29 06:27:01;;;;;;;16.73;3.20;;;;;;;;;;5038632;28;20422;-81
2023/09/29 06:29:29;;;;;;;17.43;3.57;;;;;;;;;;5031345;28;20403;-79
2023/09/29 06:31:56;;;;;;;17.40;3.20;;;;;;;;;;5030725;28;20762;-80
2023/09/29 06:34:22;;;;;;;17.00;3.10;;;;;;;;;;5027072;28;20777;-81
2023/09/29 06:36:49;;;;;;;15.80;3.17;;;;;;;;;;5035812;28;20505;-80
2023/09/29 06:39:15;;;;;;;17.07;3.10;;;;;;;;;;5031340;28;20807;-80
2023/09/29 06:41:42;;;;;;;18.05;2.95;;;;;;;;;;5030415;28;20406;-81
2023/09/29 06:44:08;;;;;;;16.80;3.40;;;;;;;;;;5031369;28;20422;-81
2023/09/29 06:46:36;;;;;;;17.63;3.30;;;;;;;;;;5031471;28;20514;-80
2023/09/29 06:49:03;;;;;;;16.27;2.95;;;;;;;;;;5030753;28;20415;-80
2023/09/29 06:51:30;;;;;;;18.35;3.00;;;;;;;;;;5028251;28;20490;-81
2023/09/29 06:53:56;;;;;;;15.95;2.63;;;;;;;;;;5030078;28;20423;-82
2023/09/29 06:56:24;;;;;;;16.20;2.88;;;;;;;;;;5039811;28;20430;-81
2023/09/29 06:58:50;;;;;;;22.90;3.45;;;;;;;;;;5031387;28;20498;-78
2023/09/29 07:01:17;;;;;;;17.43;3.30;;;;;;;;;;5031860;28;20465;-80
2023/09/29 07:03:45;;;;;;;20.60;3.10;;;;;;;;;;5031474;28;20713;-80
2023/09/29 07:06:12;;;;;;;15.90;2.60;;;;;;;;;;5029787;28;20442;-80
2023/09/29 07:08:39;;;;;;;16.80;2.80;;;;;;;;;;5029631;28;20502;-81
2023/09/29 07:11:06;;;;;;;19.80;2.95;;;;;;;;;;5031821;28;20783;-80
2023/09/29 07:13:32;;;;;;;17.25;2.97;;;;;;;;;;5031744;28;20433;-81
2023/09/29 07:15:59;;;;;;;22.42;3.35;;;;;;;;;;5032231;28;20772;-82
2023/09/29 07:18:25;;;;;;;19.33;3.20;;;;;;;;;;5031652;28;20450;-80
2023/09/29 07:20:53;;;;;;;17.58;3.10;;;;;;;;;;5016115;28;20518;-80
2023/09/29 07:23:21;;;;;;;16.93;3.20;;;;;;;;;;5031019;28;20506;-79
2023/09/29 07:25:49;;;;;;;17.00;3.20;;;;;;;;;;5030676;28;20406;-81
2023/09/29 07:28:22;;;;;;;17.30;2.80;;;;;;;;;;5029936;28;20426;-82
2023/09/29 07:30:50;;;;;;;17.30;2.92;;;;;;;;;;5030072;28;20403;-80
2023/09/29 07:33:17;;;;;;;18.95;2.88;;;;;;;;;;5030798;28;20407;-81
2023/09/29 07:35:44;;;;;;;17.30;2.83;;;;;;;;;;5031082;28;20407;-78
2023/09/29 07:38:13;;;;;;;16.50;2.93;;;;;;;;;;5030302;28;20419;-81
2023/09/29 07:40:39;;;;;;;16.90;2.60;;;;;;;;;;5029680;28;20421;-79
2023/09/29 07:43:06;;;;;;;17.25;2.88;;;;;;;;;;5037012;28;20443;-82
2023/09/29 07:45:33;;;;;;;16.55;3.05;;;;;;;;;;5030836;28;20416;-80
2023/09/29 07:47:59;;;;;;;17.20;2.75;;;;;;;;;;5030844;28;20407;-82
2023/09/29 07:50:26;;;;;;;17.17;2.53;;;;;;;;;;5030946;28;20411;-81
2023/09/29 07:52:53;;;;;;;16.42;2.70;;;;;;;;;;5035692;28;20407;-80
2023/09/29 07:55:21;;;;;;;15.43;2.80;;;;;;;;;;5029022;28;20411;-81
2023/09/29 07:57:48;;;;;;;20.52;3.30;;;;;;;;;;5030924;28;20461;-81
2023/09/29 08:00:16;;;;;;;17.13;2.70;;;;;;;;;;5029625;28;20415;-80
2023/09/29 08:02:43;;;;;;;16.93;2.60;;;;;;;;;;5026566;28;20909;-82
2023/09/29 08:05:12;;;;;;;18.23;3.40;;;;;;;;;;5035666;28;20430;-81
2023/09/29 08:07:39;;;;;;;16.55;2.78;;;;;;;;;;5034154;28;20763;-80
2023/09/29 08:10:06;;;;;;;16.90;2.60;;;;;;;;;;5031922;28;20403;-82
2023/09/29 08:12:36;;;;;;;17.52;2.67;;;;;;;;;;5047539;28;20410;-79
2023/09/29 08:15:03;;;;;;;19.27;3.22;;;;;;;;;;5033840;28;20529;-81
2023/09/29 08:17:30;;;;;;;17.15;2.50;;;;;;;;;;5032485;28;20426;-80
2023/09/29 08:19:56;;;;;;;16.90;2.70;;;;;;;;;;5032521;28;20431;-81
2023/09/29 08:22:23;;;;;;;17.40;3.08;;;;;;;;;;5031931;28;20500;-80
2023/09/29 08:25:08;;;;;;;17.83;2.90;;;;;;;;;;5033442;28;20738;-80
2023/09/29 08:27:36;;;;;;;18.63;3.05;;;;;;;;;;5032494;28;20417;-79
2023/09/29 08:30:03;;;;;;;16.20;2.93;;;;;;;;;;5032806;28;20418;-78
2023/09/29 08:32:30;;;;;;;17.33;2.80;;;;;;;;;;5033660;28;20411;-82
2023/09/29 08:34:58;;;;;;;17.15;2.80;;;;;;;;;;5032529;28;20415;-80
2023/09/29 08:37:24;;;;;;;20.42;2.90;;;;;;;;;;5033929;28;20427;-82
2023/09/29 08:39:53;;;;;;;17.92;3.10;;;;;;;;;;5032244;28;20788;-80
2023/09/29 08:42:26;;;;;;;15.93;2.50;;;;;;;;;;5033600;28;20494;-82
2023/09/29 08:44:54;;;;;;;16.17;2.80;;;;;;;;;;5033664;28;20748;-82
2023/09/29 08:47:25;;;;;;;20.60;2.92;;;;;;;;;;5033230;28;20501;-79
2023/09/29 08:49:51;;;;;;;18.00;2.80;;;;;;;;;;5032969;28;20411;-81
2023/09/29 08:52:19;;;;;;;16.17;2.50;;;;;;;;;;5041722;28;21006;-82
2023/09/29 08:54:45;;;;;;;18.38;2.97;;;;;;;;;;5043321;28;20418;-80
2023/09/29 08:57:12;;;;;;;16.90;2.90;;;;;;;;;;5032341;28;20772;-82
2023/09/29 08:59:40;;;;;;;16.48;3.10;;;;;;;;;;5033118;28;20411;-81
2023/09/29 09:02:08;;;;;;;17.70;3.13;;;;;;;;;;5033485;28;20407;-81
2023/09/29 09:04:34;;;;;;;18.20;2.60;;;;;;;;;;5033119;28;20414;-82
2023/09/29 09:07:02;;;;;;;15.25;2.42;;;;;;;;;;5032330;28;20414;-83
2023/09/29 09:09:29;;;;;;;16.60;3.20;;;;;;;;;;5031875;28;20423;-84
2023/09/29 09:11:56;;;;;;;16.75;2.50;;;;;;;;;;5035295;28;20407;-83
2023/09/29 09:14:23;;;;;;;17.00;2.70;;;;;;;;;;5032853;28;20411;-85
2023/09/29 09:16:50;;;;;;;18.70;2.45;;;;;;;;;;5031635;28;20791;-79
2023/09/29 09:19:19;;;;;;;15.75;2.60;;;;;;;;;;5031417;28;20415;-81
2023/09/29 09:21:46;;;;;;;18.00;2.80;;;;;;;;;;5033464;28;20413;-82
2023/09/29 09:24:18;;;;;;;15.60;2.67;;;;;;;;;;5037710;28;20415;-81
2023/09/29 09:26:46;;;;;;;17.63;2.90;;;;;;;;;;5034169;28;20403;-79
2023/09/29 09:29:16;;;;;;;15.90;2.40;;;;;;;;;;5033551;28;20910;-84
2023/09/29 09:31:44;;;;;;;18.10;2.67;;;;;;;;;;5041990;28;20779;-80
2023/09/29 09:34:12;;;;;;;16.83;2.40;;;;;;;;;;5031458;28;20443;-81
2023/09/29 09:36:50;;;;;;;17.30;2.70;;;;;;;;;;5033295;28;20414;-82
2023/09/29 09:39:18;;;;;;;16.15;2.80;;;;;;;;;;5041445;28;20427;-81
2023/09/29 09:41:46;;;;;;;15.90;2.10;;;;;;;;;;5029100;28;20402;-81
2023/09/29 09:44:12;;;;;;;16.80;2.90;;;;;;;;;;5030533;28;20412;-82
2023/09/29 09:46:40;;;;;;;17.63;2.70;;;;;;;;;;5032506;28;20399;-82
2023/09/29 09:49:13;;;;;;;18.40;2.70;;;;;;;;;;5033048;28;20415;-82
2023/09/29 09:51:41;;;;;;;17.43;2.40;;;;;;;;;;5032259;28;20442;-81
2023/09/29 09:54:10;;;;;;;17.70;2.20;;;;;;;;;;5040441;28;20403;-80
2023/09/29 09:56:40;;;;;;;15.77;2.20;;;;;;;;;;5047493;28;20428;-81
2023/09/29 09:59:08;;;;;;;16.60;2.60;;;;;;;;;;5033615;28;20447;-84
2023/09/29 10:01:34;;;;;;;15.63;2.40;;;;;;;;;;5041940;28;20419;-83
2023/09/29 10:04:06;;;;;;;16.67;2.40;;;;;;;;;;5043330;28;20460;-84
2023/09/29 10:06:37;;;;;;;17.67;2.30;;;;;;;;;;5034281;28;20403;-84
2023/09/29 10:09:11;;;;;;;18.70;2.30;;;;;;;;;;5016186;28;20425;-82
2023/09/29 10:11:44;;;;;;;16.30;2.35;;;;;;;;;;5030573;28;20410;-84
2023/09/29 10:14:11;;;;;;;16.52;2.10;;;;;;;;;;5029967;28;20489;-82
2023/09/29 10:16:40;;;;;;;15.75;2.20;;;;;;;;;;5026473;28;20431;-80
2023/09/29 10:19:12;;;;;;;15.25;2.30;;;;;;;;;;5032229;28;20419;-82
2023/09/29 10:21:43;;;;;;;16.92;2.20;;;;;;;;;;5034931;28;20403;-80
2023/09/29 10:24:13;;;;;;;15.77;2.30;;;;;;;;;;5035233;28;20517;-84
2023/09/29 10:26:46;;;;;;;17.55;2.00;;;;;;;;;;5045685;28;20438;-80
2023/09/29 10:29:19;;;;;;;16.48;2.10;;;;;;;;;;5034309;28;20407;-81
2023/09/29 10:31:48;;;;;;;16.03;1.80;;;;;;;;;;5032077;28;20505;-88
2023/09/29 10:34:19;;;;;;;18.17;1.80;;;;;;;;;;5033684;28;20468;-88
2023/09/29 10:36:52;;;;;;;16.35;2.00;;;;;;;;;;5042744;28;20443;-85
2023/09/29 10:39:23;;;;;;;15.60;2.08;;;;;;;;;;5030969;28;20486;-86
2023/09/29 10:41:57;;;;;;;15.52;2.10;;;;;;;;;;5032153;28;20502;-88
2023/09/29 10:44:27;;;;;;;15.88;2.10;;;;;;;;;;5032630;28;20872;-85
2023/09/29 10:46:55;;;;;;;17.25;2.83;;;;;;;;;;5033983;28;20450;-85
2023/09/29 10:49:29;;;;;;;18.02;2.80;;;;;;;;;;5051081;28;20788;-84
2023/09/29 10:51:57;;;;;;;19.67;3.30;;;;;;;;;;5045128;28;20431;-83
2023/09/29 10:54:24;;;;;;;21.35;4.55;;;;;;;;;;5040665;28;20411;-85
2023/09/29 10:56:51;;;;;;;19.45;3.60;;;;;;;;;;5032309;28;20407;-81
2023/09/29 10:59:19;;;;;;;20.83;3.97;;;;;;;;;;5036265;28;20423;-82
2023/09/29 11:01:46;;;;;;;20.45;4.07;;;;;;;;;;5034202;28;20411;-83
2023/09/29 11:04:13;;;;;;;20.83;3.80;;;;;;;;;;5034141;28;20414;-80
2023/09/29 11:06:42;;;;;;;21.60;4.55;;;;;;;;;;5035197;28;20418;-85
2023/09/29 11:09:13;;;;;;;21.15;4.10;;;;;;;;;;5032865;28;20402;-81
2023/09/29 11:11:40;;;;;;;21.42;4.38;;;;;;;;;;5022878;28;20776;-84
2023/09/29 11:14:07;;;;;;;20.40;3.97;;;;;;;;;;5031900;28;20410;-83
2023/09/29 11:16:36;;;;;;;21.95;5.28;;;;;;;;;;5027834;28;20420;-82
2023/09/29 11:19:07;;;;;;;20.35;3.90;;;;;;;;;;5028848;28;20518;-80
2023/09/29 11:21:34;;;;;;;20.02;4.13;;;;;;;;;;5029043;28;20424;-79
2023/09/29 11:24:04;;;;;;;19.95;4.50;;;;;;;;;;5030756;28;20446;-83
2023/09/29 11:26:32;;;;;;;22.35;4.72;;;;;;;;;;5032900;28;20406;-81
2023/09/29 11:28:58;;;;;;;21.65;4.65;;;;;;;;;;5028824;28;20417;-80
2023/09/29 11:31:25;;;;;;;23.33;4.80;;;;;;;;;;5031125;28;20407;-80
2023/09/29 11:33:53;;;;;;;21.65;5.10;;;;;;;;;;5031267;28;20910;-79
2023/09/29 11:36:23;;;;;;;22.15;3.95;;;;;;;;;;5031875;28;20411;-80
2023/09/29 11:38:52;;;;;;;24.45;5.20;;;;;;;;;;5002299;28;20513;-81
2023/09/29 11:41:21;;;;;;;21.50;5.07;;;;;;;;;;5032573;28;20406;-83
2023/09/29 11:43:48;;;;;;;23.08;5.65;;;;;;;;;;5033460;28;20446;-83
2023/09/29 11:46:14;;;;;;;24.15;4.70;;;;;;;;;;5035515;28;20413;-83
2023/09/29 11:48:42;;;;;;;23.63;4.80;;;;;;;;;;5042592;28;20407;-81
2023/09/29 11:51:10;;;;;;;23.25;6.05;;;;;;;;;;5033756;28;20794;-84
2023/09/29 11:53:38;;;;;;;20.45;3.95;;;;;;;;;;5036087;28;20415;-81
2023/09/29 11:56:05;;;;;;;20.50;3.97;;;;;;;;;;5034129;28;20484;-84
2023/09/29 11:58:32;;;;;;;21.75;5.35;;;;;;;;;;5035133;28;20458;-81
2023/09/29 12:01:00;;;;;;;21.08;3.90;;;;;;;;;;5033990;28;20418;-79
2023/09/29 12:03:27;;;;;;;23.33;6.25;;;;;;;;;;5041041;28;20498;-80
2023/09/29 12:05:56;;;;;;;21.83;4.47;;;;;;;;;;5034995;28;20413;-82
2023/09/29 12:08:24;;;;;;;23.23;4.70;;;;;;;;;;5034990;28;20403;-82
2023/09/29 12:10:51;;;;;;;19.88;4.80;;;;;;;;;;5043351;28;20419;-81
2023/09/29 12:13:17;;;;;;;20.88;3.80;;;;;;;;;;5038852;28;20494;-82
2023/09/29 12:15:44;;;;;;;18.65;3.50;;;;;;;;;;5033589;28;20423;-83
2023/09/29 12:18:11;;;;;;;18.98;3.50;;;;;;;;;;5023349;28;20508;-81
2023/09/29 12:20:41;;;;;;;25.23;4.40;;;;;;;;;;5033322;28;20418;-80
2023/09/29 12:23:08;;;;;;;20.52;3.78;;;;;;;;;;5031840;28;20410;-83
2023/09/29 12:25:36;;;;;;;18.83;3.30;;;;;;;;;;5032894;28;20442;-81
2023/09/29 12:28:03;;;;;;;19.90;4.22;;;;;;;;;;5035976;28;20457;-81
2023/09/29 12:30:30;;;;;;;19.15;2.95;;;;;;;;;;5036113;28;20417;-82
2023/09/29 12:32:57;;;;;;;20.87;3.40;;;;;;;;;;5035190;28;20414;-80
2023/09/29 12:35:24;;;;;;;18.15;3.20;;;;;;;;;;5041104;28;20418;-83
2023/09/29 12:37:51;;;;;;;18.27;3.00;;;;;;;;;;5032891;28;20442;-82
2023/09/29 12:40:17;;;;;;;19.00;3.00;;;;;;;;;;5034187;28;20434;-82
2023/09/29 12:42:49;;;;;;;18.85;3.55;;;;;;;;;;5033981;28;20407;-84
2023/09/29 12:45:23;;;;;;;20.10;3.47;;;;;;;;;;5033456;28;20418;-82
2023/09/29 12:47:49;;;;;;;18.00;3.30;;;;;;;;;;5030788;28;20436;-83
2023/09/29 12:50:16;;;;;;;19.98;3.50;;;;;;;;;;5030138;28;20414;-83
2023/09/29 12:52:46;;;;;;;19.63;2.95;;;;;;;;;;5034025;28;20411;-83
2023/09/29 12:55:14;;;;;;;19.85;3.60;;;;;;;;;;5034574;28;20476;-83
2023/09/29 12:57:43;;;;;;;18.55;3.28;;;;;;;;;;5034996;28;20406;-83
2023/09/29 13:00:22;;;;;;;21.23;3.50;;;;;;;;;;5031738;28;20416;-81
2023/09/29 13:02:51;;;;;;;19.25;2.95;;;;;;;;;;5032720;28;20415;-83
2023/09/29 13:05:18;;;;;;;18.15;3.40;;;;;;;;;;5033060;28;20518;-81
2023/09/29 13:07:49;;;;;;;20.35;3.65;;;;;;;;;;5035072;28;20446;-83
2023/09/29 13:10:18;;;;;;;18.35;3.00;;;;;;;;;;5033505;28;20439;-83
2023/09/29 13:12:48;;;;;;;19.80;3.08;;;;;;;;;;5034416;28;20513;-81
2023/09/29 13:15:16;;;;;;;18.63;3.13;;;;;;;;;;5031680;28;20415;-83
2023/09/29 13:17:43;;;;;;;18.33;3.10;;;;;;;;;;5030946;28;20422;-84
2023/09/29 13:20:10;;;;;;;17.80;2.90;;;;;;;;;;5034145;28;20407;-84
2023/09/29 13:22:37;;;;;;;18.30;3.10;;;;;;;;;;5033117;28;20507;-84
2023/09/29 13:25:04;;;;;;;20.90;3.30;;;;;;;;;;5030650;28;20419;-81
2023/09/29 13:27:32;;;;;;;17.20;2.83;;;;;;;;;;5032481;28;20941;-82
2023/09/29 13:29:58;;;;;;;20.20;3.10;;;;;;;;;;5028854;28;20727;-79
2023/09/29 13:32:26;;;;;;;19.67;4.18;;;;;;;;;;5029888;28;20895;-84
2023/09/29 13:34:53;;;;;;;19.10;3.13;;;;;;;;;;5031456;28;20411;-79
2023/09/29 13:37:20;;;;;;;19.63;3.22;;;;;;;;;;5043463;28;20884;-80
2023/09/29 13:39:48;;;;;;;19.13;3.50;;;;;;;;;;5030578;28;20422;-80
2023/09/29 13:42:14;;;;;;;19.17;3.25;;;;;;;;;;5030212;28;20408;-79
2023/09/29 13:44:41;;;;;;;18.10;3.00;;;;;;;;;;5032561;28;20411;-80
2023/09/29 13:47:07;;;;;;;18.25;2.80;;;;;;;;;;5032466;28;20506;-79
2023/09/29 13:49:35;;;;;;;20.02;3.20;;;;;;;;;;5032471;28;20399;-80
2023/09/29 13:52:02;;;;;;;17.35;2.63;;;;;;;;;;5032357;28;20411;-81
2023/09/29 13:54:29;;;;;;;17.75;2.53;;;;;;;;;;5031531;28;20415;-82
2023/09/29 13:56:57;;;;;;;17.17;2.80;;;;;;;;;;5028780;28;20771;-82
2023/09/29 13:59:24;;;;;;;17.75;2.67;;;;;;;;;;5032031;28;20415;-83
2023/09/29 14:01:51;;;;;;;16.95;3.20;;;;;;;;;;5031483;28;20407;-80
2023/09/29 14:04:17;;;;;;;18.70;2.40;;;;;;;;;;5030488;28;20490;-79
2023/09/29 14:06:46;;;;;;;17.08;2.40;;;;;;;;;;5032406;28;20725;-79
2023/09/29 14:09:12;;;;;;;17.30;2.05;;;;;;;;;;5043516;28;20415;-83
2023/09/29 14:11:43;;;;;;;17.03;2.17;;;;;;;;;;5032032;28;20411;-81
2023/09/29 14:14:10;;;;;;;17.73;2.58;;;;;;;;;;5033472;28;20871;-81
2023/09/29 14:16:37;;;;;;;15.87;1.90;;;;;;;;;;5029843;28;20411;-80
2023/09/29 14:19:03;;;;;;;15.30;1.55;;;;;;;;;;5031855;28;20415;-80
2023/09/29 14:21:30;;;;;;;15.80;1.70;;;;;;;;;;5032186;28;20502;-87
2023/09/29 14:23:59;;;;;;;15.10;1.63;;;;;;;;;;5031528;28;20415;-83
2023/09/29 14:26:26;;;;;;;15.23;2.00;;;;;;;;;;5032397;28;20468;-86
2023/09/29 14:28:53;;;;;;;17.08;1.63;;;;;;;;;;5030852;28;20924;-81
2023/09/29 14:31:20;;;;;;;15.20;1.60;;;;;;;;;;5033125;28;20865;-82
2023/09/29 14:33:46;;;;;;;15.93;1.98;;;;;;;;;;5031636;28;20415;-84